Time;durP1;ratioP1;P1;durP2;ratioP2;P2;SDS_P1;SDS_P2;PMS_P1;PMS_P2;Temp;Humidity;BMP_temperature;BMP_pressure;BME280_temperature;BME280_humidity;BME280_pressure;Samples;Min_cycle;Max_cycle;Signal;HPM_P1;HPM_P2
2023/07/06 00:00:40;;;;;;;2.20;2.00;;;;;;;13.80;89.66;101467.94;5033715;28;20382;-85
2023/07/06 00:03:06;;;;;;;2.42;2.00;;;;;;;13.74;89.32;101464.56;5034163;28;20028;-85
2023/07/06 00:05:31;;;;;;;2.30;2.10;;;;;;;13.67;90.01;101462.97;5034402;28;20072;-85
2023/07/06 00:07:56;;;;;;;4.00;2.10;;;;;;;13.68;91.37;101461.22;5033331;28;20470;-85
2023/07/06 00:10:25;;;;;;;1.73;1.63;;;;;;;13.68;89.63;101467.28;5034053;28;20025;-85
2023/07/06 00:12:50;;;;;;;1.70;1.60;;;;;;;13.70;90.07;101465.50;5034297;28;20343;-85
2023/07/06 00:15:15;;;;;;;1.63;1.53;;;;;;;13.70;90.80;101475.94;5032967;28;20051;-85
2023/07/06 00:17:41;;;;;;;1.70;1.60;;;;;;;13.56;89.06;101454.47;5034124;28;20382;-85
2023/07/06 00:20:27;;;;;;;1.73;1.63;;;;;;;13.67;93.32;101477.75;5032701;28;20040;-85
2023/07/06 00:22:54;;;;;;;2.47;2.00;;;;;;;13.57;91.91;101464.84;5033362;28;20124;-85
2023/07/06 00:25:33;;;;;;;2.03;1.90;;;;;;;13.56;90.95;101475.31;5033595;28;20037;-85
2023/07/06 00:28:16;;;;;;;1.70;1.60;;;;;;;13.42;91.49;101455.56;5033349;28;20445;-85
2023/07/06 00:30:53;;;;;;;2.00;1.70;;;;;;;13.41;89.18;101469.47;5033499;28;20032;-85
2023/07/06 00:33:21;;;;;;;2.03;1.88;;;;;;;13.42;90.73;101473.81;5033375;28;20022;-85
2023/07/06 00:35:47;;;;;;;1.92;1.83;;;;;;;13.26;90.90;101452.31;5032773;28;20036;-85
2023/07/06 00:38:15;;;;;;;2.10;1.88;;;;;;;13.27;90.61;101461.03;5033519;28;20102;-84
2023/07/06 00:40:49;;;;;;;1.95;1.75;;;;;;;13.20;90.97;101459.38;5033732;28;20028;-85
2023/07/06 00:43:45;;;;;;;1.80;1.70;;;;;;;13.16;90.12;101465.56;5032301;28;20033;-84
2023/07/06 00:46:12;;;;;;;1.88;1.77;;;;;;;13.21;89.94;101471.53;5033337;28;20101;-84
2023/07/06 00:48:46;;;;;;;1.98;1.80;;;;;;;13.07;92.83;101453.53;5032319;28;20029;-84
2023/07/06 00:51:22;;;;;;;2.55;2.20;;;;;;;13.14;92.87;101478.59;5033140;28;20087;-84
2023/07/06 00:53:56;;;;;;;2.55;2.20;;;;;;;13.03;90.36;101465.75;5033294;28;20026;-84
2023/07/06 00:56:25;;;;;;;2.33;2.00;;;;;;;13.09;90.04;101481.28;5032088;28;20071;-84
2023/07/06 00:58:54;;;;;;;1.95;1.58;;;;;;;13.08;89.72;101473.50;5033128;28;20053;-84
2023/07/06 01:01:22;;;;;;;1.83;1.73;;;;;;;13.10;89.59;101474.31;5032675;28;20108;-84
2023/07/06 01:04:08;;;;;;;1.60;1.50;;;;;;;13.10;89.19;101471.72;5032641;28;20381;-84
2023/07/06 01:06:39;;;;;;;1.90;1.60;;;;;;;13.10;90.67;101476.94;5033157;28;20093;-84
2023/07/06 01:09:06;;;;;;;1.67;1.58;;;;;;;12.98;89.44;101457.13;5033176;28;20022;-84
2023/07/06 01:11:35;;;;;;;1.40;1.30;;;;;;;13.02;90.33;101471.84;5032728;28;20031;-84
2023/07/06 01:14:00;;;;;;;1.48;1.38;;;;;;;13.00;92.46;101471.00;5032109;28;20034;-84
2023/07/06 01:16:42;;;;;;;1.63;1.50;;;;;;;12.94;90.40;101474.56;5031998;28;20026;-84
2023/07/06 01:19:20;;;;;;;1.73;1.63;;;;;;;12.91;90.80;101473.75;5032375;28;20029;-84
2023/07/06 01:21:57;;;;;;;1.60;1.50;;;;;;;12.85;90.22;101472.09;5033240;28;20037;-84
2023/07/06 01:24:54;;;;;;;1.60;1.50;;;;;;;12.84;89.73;101478.19;5032048;28;20026;-85
2023/07/06 01:27:48;;;;;;;1.63;1.52;;;;;;;12.78;89.93;101471.31;5032465;28;20454;-84
2023/07/06 01:30:41;;;;;;;1.55;1.45;;;;;;;12.76;90.02;101469.63;5032866;28;20033;-84
2023/07/06 01:33:52;;;;;;;1.65;1.55;;;;;;;12.74;90.03;101474.00;5032573;28;20025;-84
2023/07/06 01:36:53;;;;;;;1.63;1.40;;;;;;;12.71;89.60;101472.31;4994884;28;20123;-84
2023/07/06 01:39:22;;;;;;;1.63;1.52;;;;;;;12.70;90.74;101470.56;5031837;28;20049;-84
2023/07/06 01:42:07;;;;;;;1.63;1.52;;;;;;;12.69;89.71;101476.66;5032589;28;20405;-84
2023/07/06 01:44:33;;;;;;;1.80;1.50;;;;;;;12.63;90.70;101469.78;5031417;28;20045;-84
2023/07/06 01:46:58;;;;;;;1.67;1.58;;;;;;;12.57;90.20;101466.41;5032407;28;20531;-84
2023/07/06 01:49:27;;;;;;;1.40;1.30;;;;;;;12.55;89.94;101469.03;5032229;28;20030;-84
2023/07/06 01:52:34;;;;;;;1.40;1.30;;;;;;;12.43;89.51;101451.84;5031828;28;20018;-84
2023/07/06 01:55:23;;;;;;;1.50;1.40;;;;;;;12.51;89.63;101470.81;4998851;28;20112;-84
2023/07/06 01:58:04;;;;;;;1.38;1.27;;;;;;;12.49;90.22;101472.59;5032353;28;20046;-84
2023/07/06 02:00:32;;;;;;;1.30;1.20;;;;;;;12.45;90.62;101475.22;5030878;28;20053;-84
2023/07/06 02:02:59;;;;;;;1.50;1.40;;;;;;;12.40;89.95;101475.28;5032341;28;20068;-84
2023/07/06 02:05:26;;;;;;;1.60;1.25;;;;;;;12.33;89.75;101476.25;5032263;28;20071;-84
2023/07/06 02:07:52;;;;;;;1.80;1.70;;;;;;;12.36;89.47;101481.44;5035598;28;20367;-84
2023/07/06 02:10:20;;;;;;;1.50;1.40;;;;;;;12.33;89.38;101471.06;5035799;28;20030;-84
2023/07/06 02:12:47;;;;;;;1.45;1.35;;;;;;;12.26;90.67;101474.63;5035215;28;20025;-84
2023/07/06 02:15:19;;;;;;;1.30;1.20;;;;;;;12.23;90.44;101478.09;5035362;28;20032;-83
2023/07/06 02:17:46;;;;;;;2.45;1.65;;;;;;;12.17;90.82;101476.44;5036221;28;20052;-85
2023/07/06 02:20:12;;;;;;;1.77;1.67;;;;;;;12.16;91.58;101471.25;5035422;28;20025;-84
2023/07/06 02:22:39;;;;;;;1.55;1.45;;;;;;;12.04;91.43;101454.06;5035948;28;20116;-84
2023/07/06 02:25:05;;;;;;;1.70;1.60;;;;;;;11.97;91.27;101444.56;5036433;28;20021;-84
2023/07/06 02:27:32;;;;;;;1.90;1.75;;;;;;;12.06;91.56;101460.09;5035476;28;20017;-84
2023/07/06 02:30:06;;;;;;;1.60;1.50;;;;;;;12.06;90.54;101462.69;5035945;28;20033;-84
2023/07/06 02:32:33;;;;;;;1.40;1.30;;;;;;;12.02;90.70;101451.47;5036398;28;20479;-84
2023/07/06 02:34:58;;;;;;;1.13;1.08;;;;;;;12.03;90.97;101461.00;5035445;28;20075;-84
2023/07/06 02:37:24;;;;;;;1.30;1.20;;;;;;;11.98;91.68;101457.59;5035967;28;20033;-84
2023/07/06 02:39:50;;;;;;;1.38;1.13;;;;;;;11.95;91.38;101469.72;5035509;28;20040;-84
2023/07/06 02:42:17;;;;;;;1.10;1.10;;;;;;;11.93;92.96;101461.94;5034570;28;20033;-84
2023/07/06 02:44:43;;;;;;;1.75;1.25;;;;;;;11.90;91.68;101468.06;5035863;28;20116;-84
2023/07/06 02:47:09;;;;;;;1.50;1.40;;;;;;;11.92;93.64;101464.56;5035868;28;20144;-84
2023/07/06 02:49:34;;;;;;;1.48;1.38;;;;;;;11.90;91.63;101469.78;5035184;28;20017;-84
2023/07/06 02:52:00;;;;;;;1.50;1.33;;;;;;;11.87;91.82;101459.44;5035832;28;20026;-84
2023/07/06 02:54:26;;;;;;;3.43;1.60;;;;;;;11.90;92.71;101473.25;5035534;28;20037;-84
2023/07/06 02:56:52;;;;;;;1.55;1.40;;;;;;;11.89;93.23;101474.13;5034234;28;20049;-84
2023/07/06 02:59:18;;;;;;;1.57;1.47;;;;;;;11.89;91.79;101468.94;5034781;28;20025;-84
2023/07/06 03:01:45;;;;;;;1.47;1.37;;;;;;;11.90;91.18;101459.38;5035946;28;20029;-84
2023/07/06 03:04:11;;;;;;;1.52;1.13;;;;;;;11.96;91.99;101474.94;5034403;28;20018;-83
2023/07/06 03:06:40;;;;;;;1.38;1.27;;;;;;;11.97;92.55;101471.44;5035548;28;20048;-84
2023/07/06 03:09:07;;;;;;;1.90;1.50;;;;;;;11.90;93.66;101462.84;5033933;28;20116;-84
2023/07/06 03:11:33;;;;;;;1.60;1.30;;;;;;;11.97;93.83;101475.78;5035427;28;20049;-84
2023/07/06 03:13:59;;;;;;;1.60;1.50;;;;;;;11.95;93.33;101472.31;5035460;28;20049;-84
2023/07/06 03:16:25;;;;;;;1.90;1.80;;;;;;;11.97;94.70;101470.56;5033974;28;20035;-84
2023/07/06 03:18:50;;;;;;;2.03;1.33;;;;;;;11.94;94.01;101468.00;5033936;28;20017;-84
2023/07/06 03:21:16;;;;;;;2.37;1.60;;;;;;;11.94;94.07;101474.06;5034710;28;20025;-83
2023/07/06 03:23:41;;;;;;;1.97;1.57;;;;;;;11.98;95.52;101477.53;5034526;28;20048;-84
2023/07/06 03:26:08;;;;;;;1.70;1.60;;;;;;;11.97;94.69;101481.84;5034558;28;20049;-83
2023/07/06 03:28:34;;;;;;;;;;;;;;;12.00;94.24;101483.59;5035638;28;20025;-83
2023/07/06 03:30:59;;;;;;;1.98;1.50;;;;;;;12.00;94.79;101488.78;5034413;28;19920;-83
2023/07/06 03:33:25;;;;;;;1.70;1.60;;;;;;;11.99;94.18;101485.31;5034678;28;20482;-84
2023/07/06 03:35:53;;;;;;;1.50;1.40;;;;;;;12.02;94.23;101493.09;5034297;28;20422;-83
2023/07/06 03:38:20;;;;;;;1.50;1.40;;;;;;;12.00;94.69;101491.38;5031833;28;20052;-84
2023/07/06 03:40:49;;;;;;;;;;;;;;;12.04;94.90;101495.69;5034840;28;20029;-84
2023/07/06 03:43:16;;;;;;;1.80;1.70;;;;;;;12.03;95.69;101496.56;5034566;28;19913;-84
2023/07/06 03:45:41;;;;;;;2.13;1.70;;;;;;;12.00;93.79;101494.00;5034229;28;20022;-84
2023/07/06 03:48:07;;;;;;;1.90;1.77;;;;;;;12.09;96.85;101503.44;5034564;28;20511;-83
2023/07/06 03:50:34;;;;;;;1.70;1.60;;;;;;;12.06;93.42;101501.72;5034751;28;20100;-83
2023/07/06 03:53:00;;;;;;;1.67;1.58;;;;;;;12.10;95.10;101507.78;5033722;28;20021;-84
2023/07/06 03:55:27;;;;;;;2.13;1.70;;;;;;;12.07;97.02;101500.84;5034397;28;20462;-84
2023/07/06 03:57:53;;;;;;;1.95;1.80;;;;;;;12.07;95.85;101508.66;5034486;28;20454;-84
2023/07/06 04:00:22;;;;;;;2.70;1.80;;;;;;;12.06;96.81;101506.91;5033611;28;20052;-83
2023/07/06 04:02:57;;;;;;;2.65;1.60;;;;;;;12.10;97.57;101516.44;5034374;28;20028;-84
2023/07/06 04:05:32;;;;;;;3.20;2.28;;;;;;;12.05;98.83;101507.78;5013446;28;20026;-83
2023/07/06 04:07:59;;;;;;;4.60;2.03;;;;;;;12.06;96.95;101514.72;5014407;28;20474;-83
2023/07/06 04:10:30;;;;;;;2.70;2.03;;;;;;;12.06;98.50;101519.94;5013917;28;20455;-84
2023/07/06 04:12:58;;;;;;;4.20;2.20;;;;;;;11.95;98.38;101499.22;5013612;28;20072;-83
2023/07/06 04:15:23;;;;;;;3.65;2.35;;;;;;;12.03;98.13;101523.44;5014017;28;20022;-83
2023/07/06 04:17:52;;;;;;;3.03;2.20;;;;;;;12.07;97.20;101526.00;5014053;28;20124;-83
2023/07/06 04:20:24;;;;;;;3.65;2.10;;;;;;;12.09;97.99;101527.72;5013115;28;20091;-84
2023/07/06 04:22:51;;;;;;;1.80;1.70;;;;;;;12.12;98.06;101529.41;5014610;28;20097;-83
2023/07/06 04:25:19;;;;;;;2.17;1.80;;;;;;;12.09;95.87;101519.06;5014087;28;20045;-83
2023/07/06 04:27:46;;;;;;;2.03;1.70;;;;;;;12.17;95.77;101525.03;5013298;28;20464;-85
2023/07/06 04:30:12;;;;;;;1.67;1.58;;;;;;;12.18;96.44;101524.16;5021116;28;20033;-84
2023/07/06 04:32:38;;;;;;;1.80;1.33;;;;;;;12.20;96.33;101523.25;5033576;28;20025;-83
2023/07/06 04:35:05;;;;;;;2.43;1.70;;;;;;;12.19;96.90;101511.13;5033108;28;20363;-83
2023/07/06 04:37:31;;;;;;;3.47;1.90;;;;;;;12.30;96.37;101528.34;5033445;28;20433;-83
2023/07/06 04:39:57;;;;;;;5.95;2.42;;;;;;;12.28;98.12;101525.78;5034018;28;20029;-83
2023/07/06 04:42:27;;;;;;;5.03;2.30;;;;;;;12.35;97.83;101543.03;5032771;28;20017;-83
2023/07/06 04:44:53;;;;;;;3.20;2.40;;;;;;;12.38;97.94;101542.16;5033657;28;20045;-83
2023/07/06 04:47:19;;;;;;;4.95;2.42;;;;;;;12.34;96.48;101545.66;5033287;28;20029;-83
2023/07/06 04:49:47;;;;;;;4.47;2.50;;;;;;;12.35;96.52;101550.84;5032987;28;20080;-83
2023/07/06 04:52:12;;;;;;;2.85;2.28;;;;;;;12.28;96.76;101532.69;5032191;28;20033;-82
2023/07/06 04:54:39;;;;;;;5.73;2.50;;;;;;;12.34;97.11;101543.06;5032192;28;20032;-83
2023/07/06 04:57:07;;;;;;;5.90;2.58;;;;;;;12.38;97.37;101551.69;5033400;28;20051;-83
2023/07/06 04:59:32;;;;;;;7.72;2.60;;;;;;;12.39;98.29;101548.22;5033337;28;20064;-83
2023/07/06 05:01:58;;;;;;;4.53;2.40;;;;;;;12.46;97.87;101540.31;5032453;28;20119;-83
2023/07/06 05:04:23;;;;;;;3.77;2.30;;;;;;;12.55;98.25;101538.47;5032709;28;20018;-83
2023/07/06 05:06:49;;;;;;;3.77;2.13;;;;;;;12.64;97.49;101539.22;5033444;28;20039;-83
2023/07/06 05:09:14;;;;;;;2.20;2.00;;;;;;;12.78;97.43;101548.56;5032235;28;20569;-82
2023/07/06 05:11:41;;;;;;;4.70;2.30;;;;;;;12.86;95.98;101546.75;5032866;28;20044;-83
2023/07/06 05:14:09;;;;;;;;;;;;;;;12.89;95.91;101546.69;5033116;28;20024;-83
2023/07/06 05:16:35;;;;;;;2.70;2.25;;;;;;;12.99;95.60;101555.25;5032037;28;19913;-82
2023/07/06 05:19:00;;;;;;;3.27;2.30;;;;;;;13.07;97.32;101557.75;5033338;28;20380;-83
2023/07/06 05:21:25;;;;;;;3.10;2.20;;;;;;;13.13;96.55;101553.31;5032567;28;20141;-82
2023/07/06 05:23:51;;;;;;;4.10;2.17;;;;;;;13.21;96.57;101554.94;5032262;28;20418;-83
2023/07/06 05:26:17;;;;;;;4.10;2.40;;;;;;;13.27;95.32;101562.69;5031143;28;20025;-83
2023/07/06 05:28:42;;;;;;;6.25;2.80;;;;;;;13.31;96.96;101553.91;5031923;28;20021;-86
2023/07/06 05:31:07;;;;;;;6.43;2.80;;;;;;;13.36;97.69;101559.94;5031660;28;20030;-86
2023/07/06 05:33:33;;;;;;;7.40;3.17;;;;;;;13.45;98.05;101564.19;5032593;28;20079;-86
2023/07/06 05:35:59;;;;;;;7.57;3.63;;;;;;;13.46;97.33;101559.81;5032694;28;20088;-88
2023/07/06 05:38:27;;;;;;;7.97;3.70;;;;;;;13.55;97.90;101557.94;5031936;28;20033;-85
2023/07/06 05:40:52;;;;;;;6.10;3.05;;;;;;;13.63;97.02;101556.94;5031927;28;20420;-84
2023/07/06 05:43:21;;;;;;;6.90;3.20;;;;;;;13.77;96.26;101572.34;5032213;28;20025;-83
2023/07/06 05:45:47;;;;;;;5.68;3.08;;;;;;;13.81;97.98;101564.44;5031817;28;20033;-83
2023/07/06 05:48:13;;;;;;;7.60;3.50;;;;;;;13.89;96.65;101569.53;5032482;28;20436;-83
2023/07/06 05:50:39;;;;;;;9.57;3.90;;;;;;;13.93;96.18;101567.72;5033427;28;20458;-91
2023/07/06 05:53:06;;;;;;;6.90;3.27;;;;;;;13.97;95.97;101572.00;5033448;28;20025;-92
2023/07/06 05:55:31;;;;;;;8.35;3.58;;;;;;;14.00;93.90;101575.41;5033661;28;20443;-93
2023/07/06 05:57:57;;;;;;;7.77;3.40;;;;;;;14.10;96.19;101573.50;5033453;28;20077;-93
2023/07/06 06:00:22;;;;;;;7.63;3.70;;;;;;;14.23;96.07;101563.69;5034076;28;20092;-93
2023/07/06 06:02:48;;;;;;;7.17;3.50;;;;;;;14.37;95.73;101573.88;5033902;28;20477;-93
2023/07/06 06:05:15;;;;;;;4.93;3.13;;;;;;;14.40;94.36;101565.97;5033340;28;20112;-93
2023/07/06 06:07:43;;;;;;;;;;;;;;;14.56;92.46;101570.91;5034382;28;20052;-92
2023/07/06 06:10:09;;;;;;;10.23;4.50;;;;;;;14.51;94.20;101576.22;5033399;28;19924;-93
2023/07/06 06:12:35;;;;;;;8.00;3.57;;;;;;;14.82;94.95;101573.84;5033405;28;20022;-93
2023/07/06 06:15:01;;;;;;;7.53;3.53;;;;;;;15.54;94.00;101586.16;5033839;28;20100;-93
2023/07/06 06:17:29;;;;;;;6.80;3.50;;;;;;;16.49;89.85;101578.53;5033281;28;20185;-93
2023/07/06 06:19:55;;;;;;;5.40;3.28;;;;;;;17.14;89.88;101574.84;5033775;28;20029;-93
2023/07/06 06:22:20;;;;;;;5.17;3.30;;;;;;;17.43;86.53;101574.84;5032745;28;20033;-83
2023/07/06 06:25:02;;;;;;;6.57;3.40;;;;;;;17.49;86.16;101571.16;5032217;28;20026;-83
2023/07/06 06:27:40;;;;;;;5.13;3.03;;;;;;;17.59;86.10;101572.56;5031292;28;20037;-84
2023/07/06 06:30:10;;;;;;;4.72;2.75;;;;;;;17.93;82.60;101605.56;5032280;28;20033;-83
2023/07/06 06:32:35;;;;;;;5.53;2.90;;;;;;;17.87;83.19;101603.16;5032466;28;20036;-88
2023/07/06 06:35:02;;;;;;;4.70;2.70;;;;;;;18.05;84.41;101605.16;5031682;28;20381;-88
2023/07/06 06:37:27;;;;;;;11.52;4.20;;;;;;;18.09;82.38;101613.81;5032032;28;20025;-88
2023/07/06 06:39:59;;;;;;;7.17;4.13;;;;;;;17.98;79.82;101613.31;5031391;28;20036;-86
2023/07/06 06:42:24;;;;;;;6.72;3.60;;;;;;;17.74;80.94;101610.56;5031181;28;20432;-87
2023/07/06 06:44:49;;;;;;;5.73;3.30;;;;;;;17.67;83.16;101615.19;5032241;28;20028;-87
2023/07/06 06:47:15;;;;;;;5.07;3.10;;;;;;;17.74;82.97;101616.69;5031628;28;20029;-85
2023/07/06 06:49:40;;;;;;;9.40;3.70;;;;;;;17.75;83.46;101622.78;5031631;28;20025;-88
2023/07/06 06:52:06;;;;;;;11.10;4.73;;;;;;;17.69;79.74;101634.34;5032028;28;20025;-87
2023/07/06 06:54:32;;;;;;;8.43;4.50;;;;;;;17.54;82.36;101627.00;5034809;28;20033;-87
2023/07/06 06:56:58;;;;;;;7.32;3.75;;;;;;;17.54;83.42;101624.38;5035922;28;20042;-89
2023/07/06 06:59:23;;;;;;;7.53;3.60;;;;;;;17.53;84.01;101623.50;5036173;28;20035;-90
2023/07/06 07:01:50;;;;;;;5.80;3.50;;;;;;;17.42;83.67;101629.09;5035209;28;20022;-87
2023/07/06 07:04:16;;;;;;;5.95;3.28;;;;;;;17.33;83.69;101634.63;5035363;28;20029;-87
2023/07/06 07:06:42;;;;;;;3.67;2.83;;;;;;;17.32;83.18;101634.66;5035215;28;20032;-83
2023/07/06 07:09:12;;;;;;;4.43;3.07;;;;;;;17.25;84.00;101631.38;5034417;28;20029;-85
2023/07/06 07:11:38;;;;;;;4.55;3.00;;;;;;;17.28;84.08;101628.66;5035353;28;20029;-87
2023/07/06 07:14:03;;;;;;;10.10;4.17;;;;;;;17.52;84.86;101639.28;5035334;28;20104;-87
2023/07/06 07:16:29;;;;;;;6.27;3.40;;;;;;;17.72;84.09;101642.13;5034048;28;20112;-87
2023/07/06 07:19:10;;;;;;;5.80;3.30;;;;;;;17.99;83.29;101641.28;5034766;28;20049;-88
2023/07/06 07:21:35;;;;;;;5.13;3.28;;;;;;;18.18;83.11;101654.66;5035234;28;20029;-87
2023/07/06 07:24:19;;;;;;;6.20;3.57;;;;;;;18.33;83.12;101642.75;5034291;28;20024;-87
2023/07/06 07:26:57;;;;;;;10.10;4.28;;;;;;;18.37;81.08;101652.25;5034869;28;20029;-88
2023/07/06 07:29:23;;;;;;;9.10;4.32;;;;;;;18.30;80.31;101654.25;5033749;28;20047;-87
2023/07/06 07:31:49;;;;;;;8.32;4.35;;;;;;;18.19;81.14;101662.47;5035203;28;20029;-88
2023/07/06 07:34:15;;;;;;;;;;;;;;;18.01;81.09;101663.13;5035065;28;20026;-89
2023/07/06 07:36:40;;;;;;;9.43;4.30;;;;;;;17.87;82.20;101663.53;5034178;28;19921;-88
2023/07/06 07:39:05;;;;;;;5.97;3.60;;;;;;;17.96;82.67;101665.03;5034686;28;20078;-87
2023/07/06 07:41:31;;;;;;;9.00;4.33;;;;;;;17.90;81.91;101650.31;5035054;28;20056;-88
2023/07/06 07:43:58;;;;;;;9.87;4.53;;;;;;;17.78;82.49;101656.81;5033812;28;20021;-87
2023/07/06 07:46:39;;;;;;;8.82;4.43;;;;;;;17.76;82.96;101666.50;5033685;28;20053;-87
2023/07/06 07:49:05;;;;;;;9.15;4.60;;;;;;;17.72;82.59;101665.75;5034714;28;20034;-87
2023/07/06 07:51:31;;;;;;;7.50;4.27;;;;;;;17.66;82.76;101671.22;5033306;28;20095;-87
2023/07/06 07:53:57;;;;;;;8.57;4.60;;;;;;;17.59;82.88;101674.94;5034719;28;20431;-87
2023/07/06 07:56:24;;;;;;;9.00;4.53;;;;;;;17.55;83.62;101668.91;5034169;28;20029;-87
2023/07/06 07:58:53;;;;;;;7.20;4.07;;;;;;;17.55;84.35;101668.91;5033937;28;20025;-88
2023/07/06 08:01:23;;;;;;;10.63;4.60;;;;;;;17.59;84.07;101669.69;5034119;28;20478;-87
2023/07/06 08:03:49;;;;;;;7.10;4.03;;;;;;;17.69;84.99;101673.72;5034031;28;20030;-88
2023/07/06 08:06:16;;;;;;;10.73;4.78;;;;;;;17.87;84.13;101671.44;5033409;28;20079;-87
2023/07/06 08:08:43;;;;;;;7.32;4.20;;;;;;;18.12;83.26;101673.28;5034416;28;20029;-88
2023/07/06 08:11:20;;;;;;;7.35;4.20;;;;;;;18.37;82.63;101681.16;5034266;28;20022;-87
2023/07/06 08:13:45;;;;;;;5.70;3.28;;;;;;;18.57;81.90;101672.59;5032092;28;20473;-86
2023/07/06 08:16:12;;;;;;;6.20;3.77;;;;;;;18.75;82.46;101663.16;5033732;28;20083;-87
2023/07/06 08:18:41;;;;;;;12.88;5.38;;;;;;;18.90;79.40;101664.38;5033607;28;20002;-87
2023/07/06 08:21:08;;;;;;;8.52;4.20;;;;;;;18.92;79.89;101677.47;5033737;28;20053;-87
2023/07/06 08:23:34;;;;;;;;;;;;;;;18.95;80.36;101675.59;5034443;28;20026;-87
2023/07/06 08:26:03;;;;;;;7.07;3.92;;;;;;;19.00;80.36;101683.31;5033257;28;19973;-87
2023/07/06 08:28:31;;;;;;;4.90;3.25;;;;;;;19.11;81.45;101665.34;5033541;28;20393;-87
2023/07/06 08:31:16;;;;;;;5.75;3.80;;;;;;;19.18;79.17;101676.50;5033596;28;20025;-87
2023/07/06 08:33:41;;;;;;;9.55;4.70;;;;;;;19.07;79.62;101673.41;5033047;28;20029;-87
2023/07/06 08:36:08;;;;;;;4.50;3.57;;;;;;;19.14;79.79;101681.03;5033721;28;20022;-86
2023/07/06 08:38:33;;;;;;;9.65;4.80;;;;;;;19.11;79.52;101680.28;5033833;28;20018;-87
2023/07/06 08:41:03;;;;;;;9.00;4.30;;;;;;;19.17;78.29;101682.69;5032240;28;20358;-88
2023/07/06 08:43:30;;;;;;;7.05;4.30;;;;;;;19.45;78.76;101684.25;5032674;28;20108;-87
2023/07/06 08:46:00;;;;;;;5.63;3.85;;;;;;;19.79;79.38;101685.53;5033577;28;20029;-87
2023/07/06 08:48:31;;;;;;;9.52;5.07;;;;;;;19.98;72.56;101683.03;5032637;28;20500;-86
2023/07/06 08:51:18;;;;;;;8.13;4.40;;;;;;;19.97;75.99;101691.00;5033828;28;20029;-88
2023/07/06 08:53:52;;;;;;;6.60;4.03;;;;;;;20.00;77.16;101696.13;5032808;28;20034;-87
2023/07/06 08:56:22;;;;;;;5.18;3.65;;;;;;;19.96;75.99;101695.41;5033034;28;20382;-87
2023/07/06 08:58:47;;;;;;;4.88;3.20;;;;;;;19.87;76.63;101695.78;5033027;28;20036;-87
2023/07/06 09:01:17;;;;;;;4.73;3.20;;;;;;;19.95;76.69;101696.31;5032234;28;20029;-87
2023/07/06 09:03:48;;;;;;;6.68;3.70;;;;;;;20.01;75.10;101698.69;5033103;28;20021;-87
2023/07/06 09:06:37;;;;;;;7.20;3.47;;;;;;;19.98;72.84;101697.97;5032908;28;20022;-87
2023/07/06 09:09:02;;;;;;;4.97;3.40;;;;;;;19.92;71.34;101701.72;5031198;28;20065;-86
2023/07/06 09:11:31;;;;;;;7.40;4.07;;;;;;;19.94;73.19;101702.50;5032203;28;20025;-87
2023/07/06 09:13:58;;;;;;;7.20;4.50;;;;;;;19.77;70.79;101703.16;5032935;28;20022;-87
2023/07/06 09:16:25;;;;;;;8.15;4.32;;;;;;;19.66;73.39;101705.38;5030911;28;20520;-87
2023/07/06 09:18:52;;;;;;;;;;;;;;;19.58;72.32;101703.03;5033615;28;20079;-87
2023/07/06 09:21:38;;;;;;;6.97;3.80;;;;;;;19.62;74.69;101704.66;5033153;28;19913;-86
2023/07/06 09:24:04;;;;;;;6.40;3.80;;;;;;;19.75;73.64;101703.25;5031569;28;20061;-87
2023/07/06 09:26:35;;;;;;;5.28;3.70;;;;;;;19.75;74.42;101699.72;5032595;28;20390;-87
2023/07/06 09:29:18;;;;;;;4.60;3.10;;;;;;;19.99;76.34;101708.44;5033578;28;20032;-89
2023/07/06 09:31:47;;;;;;;6.88;3.55;;;;;;;20.27;72.12;101707.28;5032562;28;20419;-83
2023/07/06 09:34:50;;;;;;;5.93;3.22;;;;;;;20.42;73.78;101711.03;5032151;28;20539;-90
2023/07/06 09:37:31;;;;;;;8.60;3.88;;;;;;;20.64;71.00;101702.19;5002387;28;20054;-92
2023/07/06 09:40:03;;;;;;;5.80;3.30;;;;;;;20.87;72.46;101708.25;5033759;28;20075;-93
2023/07/06 09:42:42;;;;;;;6.32;3.50;;;;;;;21.05;69.46;101712.72;5033823;28;20033;-94
2023/07/06 09:45:38;;;;;;;5.38;3.22;;;;;;;20.95;69.34;101719.31;5033439;28;20434;-94
2023/07/06 09:48:39;;;;;;;5.18;2.70;;;;;;;20.69;70.81;101718.69;5033912;28;20029;-93
2023/07/06 09:51:36;;;;;;;3.25;2.67;;;;;;;20.55;70.65;101721.06;5033458;28;20098;-93
2023/07/06 09:54:17;;;;;;;3.58;2.40;;;;;;;20.35;70.03;101702.53;5033711;28;20095;-93
2023/07/06 09:56:44;;;;;;;3.22;2.20;;;;;;;20.32;69.25;101710.56;5101296;22;20041;-93
2023/07/06 09:59:15;;;;;;;;;;;;;;;20.29;71.97;101713.38;5088695;28;20043;-94
2023/07/06 10:01:47;;;;;;;3.28;2.10;;;;;;;20.24;70.18;101707.41;5073932;28;19918;-93
2023/07/06 10:04:59;;;;;;;2.70;2.08;;;;;;;20.25;72.58;101711.78;5072988;28;20036;-90
2023/07/06 10:07:30;;;;;;;1.73;1.63;;;;;;;20.42;71.80;101712.84;5071994;28;20031;-88
2023/07/06 10:10:30;;;;;;;3.20;2.20;;;;;;;20.65;70.38;101717.09;5072623;28;20100;-88
2023/07/06 10:13:10;;;;;;;4.57;2.35;;;;;;;20.61;70.12;101704.97;5071976;28;20036;-87
2023/07/06 10:15:52;;;;;;;1.90;1.80;;;;;;;20.81;71.25;101712.03;5072495;28;20056;-87
2023/07/06 10:18:30;;;;;;;2.25;1.60;;;;;;;20.95;67.46;101708.75;5092029;28;20032;-88
2023/07/06 10:21:14;;;;;;;1.52;1.40;;;;;;;21.14;70.08;101700.88;5093317;28;20106;-87
2023/07/06 10:23:54;;;;;;;3.38;2.00;;;;;;;21.28;67.74;101703.72;5092711;28;20096;-87
2023/07/06 10:26:32;;;;;;;1.98;1.60;;;;;;;21.17;67.65;101700.72;5091606;28;20039;-87
2023/07/06 10:29:32;;;;;;;2.47;1.90;;;;;;;21.23;66.50;101696.94;5096122;28;20028;-87
2023/07/06 10:32:04;;;;;;;4.88;2.20;;;;;;;21.43;63.90;101703.94;5095813;28;20056;-89
2023/07/06 10:34:43;;;;;;;2.30;1.92;;;;;;;21.68;62.18;101703.63;5088412;28;20039;-88
2023/07/06 10:37:13;;;;;;;3.65;2.00;;;;;;;21.75;65.03;101691.81;5094506;28;20387;-86
2023/07/06 10:39:42;;;;;;;2.28;1.70;;;;;;;21.83;66.36;101698.53;5094753;28;20056;-87
2023/07/06 10:42:25;;;;;;;3.05;1.67;;;;;;;21.96;66.70;101694.34;5095801;28;20081;-87
2023/07/06 10:45:22;;;;;;;1.92;1.50;;;;;;;22.23;61.64;101700.97;5096056;28;20065;-86
2023/07/06 10:48:24;;;;;;;2.47;1.83;;;;;;;22.44;63.46;101709.59;5094844;28;20039;-86
2023/07/06 10:51:22;;;;;;;2.10;1.80;;;;;;;22.68;62.49;101708.31;5095146;28;20502;-87
2023/07/06 10:54:10;;;;;;;2.60;1.63;;;;;;;22.92;61.62;101707.94;5095397;28;20421;-87
2023/07/06 10:57:02;;;;;;;1.75;1.42;;;;;;;22.90;62.29;101688.66;5095621;28;20131;-89
2023/07/06 11:00:05;;;;;;;2.60;1.55;;;;;;;22.81;61.68;101697.09;5086780;28;20064;-89
2023/07/06 11:02:44;;;;;;;2.25;1.30;;;;;;;22.98;61.07;101704.13;5032071;28;20045;-88
2023/07/06 11:05:28;;;;;;;1.08;1.02;;;;;;;23.12;62.28;101693.63;5075095;28;20529;-88
2023/07/06 11:08:23;;;;;;;3.08;1.50;;;;;;;23.39;55.89;101705.47;5074852;28;20031;-88
2023/07/06 11:10:49;;;;;;;3.03;1.90;;;;;;;23.39;57.44;101695.69;5074929;28;20389;-87
2023/07/06 11:13:25;;;;;;;2.90;1.65;;;;;;;23.28;56.44;101688.38;5076074;28;20029;-84
2023/07/06 11:15:51;;;;;;;1.83;1.50;;;;;;;23.17;59.26;101719.84;5074254;28;20032;-83
2023/07/06 11:18:37;;;;;;;1.85;1.40;;;;;;;23.04;61.07;101714.34;5075138;28;20503;-83
2023/07/06 11:21:08;;;;;;;1.85;1.40;;;;;;;22.76;59.12;101722.94;5074982;28;20322;-86
2023/07/06 11:23:55;;;;;;;1.48;1.20;;;;;;;22.55;60.98;101717.84;5074125;28;20032;-82
2023/07/06 11:26:40;;;;;;;2.15;1.50;;;;;;;22.29;57.44;101719.16;5074699;28;20041;-81
2023/07/06 11:29:08;;;;;;;2.53;1.60;;;;;;;22.08;58.89;101721.06;5073032;28;20032;-82
2023/07/06 11:31:55;;;;;;;2.88;1.50;;;;;;;21.91;61.24;101726.28;5073826;28;20017;-82
2023/07/06 11:34:45;;;;;;;1.30;1.20;;;;;;;21.81;61.56;101721.53;5066600;28;20444;-82
2023/07/06 11:37:31;;;;;;;1.30;1.20;;;;;;;21.77;60.25;101722.59;5073249;28;20460;-82
2023/07/06 11:40:15;;;;;;;2.65;1.42;;;;;;;21.80;61.49;101720.66;5073499;28;20039;-82
2023/07/06 11:43:04;;;;;;;1.27;1.15;;;;;;;22.03;61.83;101729.25;5073904;28;20044;-82
2023/07/06 11:45:35;;;;;;;0.90;0.90;;;;;;;22.15;62.61;101730.44;5074448;28;20024;-82
2023/07/06 11:48:23;;;;;;;2.42;1.50;;;;;;;22.12;59.00;101736.75;5074401;28;20533;-82